New Braunfels, TX (78135)

4:49 AM CST on February 21, 2017 (GMT -0600)
MUR216 | | Change Station

Elev 633 ft 29.70 °N, 98.12 °W | Updated 5 hours ago

Clear
Clear
58.0 °F
Feels Like 58.0 °F
N
-
Wind Variable Wind from North

Today
High -- | Low -- °F
--% Chance of Precip.
Yesterday
High -- | Low -- °F
Precip. -- in
Pressure 29.94 in
Visibility 10.0 miles
Clouds Clear
Dew Point Not available.
Humidity Not available.
Rainfall in
Snow Depth Not available.
7:06 AM 6:26 PM
Waning Crescent, 26% visible
METAR KBAZ 210951Z AUTO 30009KT 10SM CLR 13/06 A2995 RMK AO2 SLP137 T01330061 $
Pressure 29.94 in
Visibility 10.0 miles
Clouds Clear
Dew Point Not available.
Humidity Not available.
Rainfall in
Snow Depth Not available.
7:06 AM 6:26 PM
Waning Crescent, 26% visible
METAR KBAZ 210951Z AUTO 30009KT 10SM CLR 13/06 A2995 RMK AO2 SLP137 T01330061 $

Get Your Daily Forecast Email!

Thanks for signing up!

Be on the lookout for a verification email in your inbox.

You'll start receiving the daily forecast at 8 AM.

×

10-Day Weather Forecast

Almanac

Astronomy

Feb. 21, 2017 Rise Set
Actual Time
Civil Twilight
Nautical Twilight
Astronomical Twilight
Moon
Length of Visible Light
Length of Day
Tomorrow will be .
, % of the Moon is Illuminated

Today's Extremes

State Highs State Lows

Community

WunderPhotos

Upload Photos

1,962,540 photos uploaded!

WunderBlog® & News

Nearby

Air Quality

  Air Quality AQ Index Pollutant
Not available.

Snow Depth

Station Depth Elevation

Earthquake Activity

City Distance Mag. Time & Date
Minimum magnitude displayed is 2.5.

Coastal Water Temperatures

Place Temperature

Stations

Nearby Weather Stations

Station Location Temp. Windchill Dew Point Humidity Wind Precip. Elev Updated Type
                   

Watches & Warnings

There are currently no watches in effect.